createdAt,value
2019-04-07T00:34:27.625Z,917.82
2019-04-07T00:35:31.499Z,917.78
2019-04-07T00:37:27.372Z,917.73
2019-04-07T00:38:27.218Z,917.75
2019-04-07T00:39:27.207Z,917.74
2019-04-07T00:40:27.248Z,917.75
2019-04-07T00:41:27.532Z,917.78
2019-04-07T00:42:27.509Z,917.78
2019-04-07T00:43:27.506Z,917.79
2019-04-07T00:44:27.154Z,917.84
2019-04-07T00:45:27.143Z,917.74
2019-04-07T00:46:27.917Z,917.66
2019-04-07T00:47:27.123Z,917.68
2019-04-07T00:48:27.501Z,917.73
2019-04-07T00:49:27.098Z,917.70
2019-04-07T00:50:27.086Z,917.78
2019-04-07T00:51:27.643Z,917.78
2019-04-07T00:52:27.309Z,917.75
2019-04-07T00:53:27.056Z,917.73
2019-04-07T00:54:27.046Z,917.74
2019-04-07T00:55:27.037Z,917.65
2019-04-07T00:56:27.034Z,917.63
2019-04-07T00:57:27.517Z,917.64
2019-04-07T00:58:27.005Z,917.62
2019-04-07T00:59:27.061Z,917.66
2019-04-07T01:00:27.031Z,917.65
2019-04-07T01:01:27.141Z,917.68
2019-04-07T01:02:27.602Z,917.68
2019-04-07T01:03:27.580Z,917.65
2019-04-07T01:04:27.597Z,917.61
2019-04-07T01:05:35.706Z,917.62
2019-04-07T01:06:28.305Z,917.64
2019-04-07T01:07:26.911Z,917.57
2019-04-07T01:08:27.138Z,917.59
2019-04-07T01:09:27.681Z,917.58
2019-04-07T01:10:27.325Z,917.62
2019-04-07T01:11:26.863Z,917.61
2019-04-07T01:12:26.857Z,917.66
2019-04-07T01:13:27.323Z,917.62
2019-04-07T01:14:26.831Z,917.59
2019-04-07T01:15:27.235Z,917.66
2019-04-07T01:16:27.368Z,917.63
2019-04-07T01:17:26.933Z,917.65
2019-04-07T01:18:27.689Z,917.68
2019-04-07T01:19:26.786Z,917.68
2019-04-07T01:20:26.905Z,917.69
2019-04-07T01:21:26.809Z,917.72
2019-04-07T01:22:26.745Z,917.71
2019-04-07T01:23:26.957Z,917.62
2019-04-07T01:24:26.732Z,917.61
2019-04-07T01:25:26.827Z,917.61
2019-04-07T01:26:26.705Z,917.64
2019-04-07T01:27:26.999Z,917.60
2019-04-07T01:28:26.682Z,917.63
2019-04-07T01:29:26.721Z,917.62
2019-04-07T01:30:27.222Z,917.65
2019-04-07T01:31:26.653Z,917.63
2019-04-07T01:32:26.711Z,917.61
2019-04-07T01:33:26.680Z,917.63
2019-04-07T01:34:27.263Z,917.67
2019-04-07T01:35:26.791Z,917.65
2019-04-07T01:36:26.601Z,917.62
2019-04-07T01:37:26.587Z,917.65
2019-04-07T01:38:26.774Z,917.54
2019-04-07T01:39:27.298Z,917.54
2019-04-07T01:40:26.549Z,917.57
2019-04-07T01:41:26.541Z,917.48
2019-04-07T01:42:26.533Z,917.52
2019-04-07T01:43:26.631Z,917.52
2019-04-07T01:44:26.687Z,917.53
2019-04-07T01:45:26.912Z,917.50
2019-04-07T01:46:26.494Z,917.53
2019-04-07T01:47:26.704Z,917.53
2019-04-07T01:48:26.867Z,917.58
2019-04-07T01:49:27.156Z,917.53
2019-04-07T01:50:26.493Z,917.49
2019-04-07T01:51:26.591Z,917.49
2019-04-07T01:52:26.425Z,917.47
2019-04-07T01:53:26.419Z,917.50
2019-04-07T01:54:26.408Z,917.50
2019-04-07T01:55:26.851Z,917.46
2019-04-07T01:56:26.438Z,917.39
2019-04-07T01:57:26.371Z,917.41
2019-04-07T01:58:26.467Z,917.41
2019-04-07T01:59:26.552Z,917.35
2019-04-07T02:00:26.563Z,917.37
2019-04-07T02:01:26.339Z,917.37
2019-04-07T02:02:26.421Z,917.38
2019-04-07T02:03:26.548Z,917.38
2019-04-07T02:04:27.021Z,917.40
2019-04-07T02:05:26.333Z,917.46
2019-04-07T02:06:26.627Z,917.40
2019-04-07T02:07:26.269Z,917.41
2019-04-07T02:08:26.413Z,917.41
2019-04-07T02:09:26.472Z,917.38
2019-04-07T02:10:26.235Z,917.33
2019-04-07T02:11:26.436Z,917.35
2019-04-07T02:12:26.824Z,917.32
2019-04-07T02:13:26.441Z,917.29
2019-04-07T02:14:26.701Z,917.26
2019-04-07T02:15:26.767Z,917.23
2019-04-07T02:16:26.866Z,917.27
2019-04-07T02:17:26.372Z,917.23
2019-04-07T02:18:26.182Z,917.22
2019-04-07T02:19:26.322Z,917.16
2019-04-07T02:20:26.688Z,917.17
2019-04-07T02:21:26.120Z,917.20
2019-04-07T02:22:26.455Z,917.16
2019-04-07T02:23:26.565Z,917.13
2019-04-07T02:24:26.703Z,917.19
2019-04-07T02:25:26.263Z,917.16
2019-04-07T02:26:26.773Z,917.16
2019-04-07T02:27:26.064Z,917.17
2019-04-07T02:28:26.418Z,917.16
2019-04-07T02:29:26.042Z,917.12
2019-04-07T02:30:26.031Z,917.11
2019-04-07T02:31:26.024Z,917.08
2019-04-07T02:32:27.604Z,917.10
2019-04-07T02:33:26.001Z,917.04
2019-04-07T02:34:25.998Z,917.05
2019-04-07T02:35:25.992Z,917.06
2019-04-07T02:36:30.148Z,917.05
2019-04-07T02:37:26.624Z,917.04
2019-04-07T02:38:26.029Z,917.01
2019-04-07T02:39:25.938Z,916.94
2019-04-07T02:40:26.757Z,916.98
2019-04-07T02:41:26.113Z,916.97
2019-04-07T02:42:26.580Z,917.02
2019-04-07T02:43:25.945Z,917.00
2019-04-07T02:44:25.889Z,917.05
2019-04-07T02:45:25.880Z,916.98
2019-04-07T02:46:26.972Z,917.00
2019-04-07T02:47:25.851Z,917.03
2019-04-07T02:48:26.553Z,917.00
2019-04-07T02:49:26.304Z,917.02
2019-04-07T02:50:26.207Z,917.01
2019-04-07T02:51:26.246Z,917.03
2019-04-07T02:52:25.800Z,917.00
2019-04-07T02:53:25.791Z,917.01
2019-04-07T02:54:25.781Z,917.06
2019-04-07T02:55:26.774Z,917.04
2019-04-07T02:56:25.763Z,917.02
2019-04-07T02:57:26.843Z,917.07
2019-04-07T02:58:25.747Z,917.10
2019-04-07T02:59:25.755Z,917.10
2019-04-07T03:00:25.718Z,917.14
2019-04-07T03:01:26.473Z,917.17
2019-04-07T03:02:25.694Z,917.17
2019-04-07T03:03:25.710Z,917.26
2019-04-07T03:04:26.315Z,917.26
2019-04-07T03:05:26.685Z,917.25
2019-04-07T03:06:37.475Z,917.31
2019-04-07T03:07:50.557Z,917.40
2019-04-07T03:08:50.658Z,917.36
2019-04-07T03:09:51.617Z,917.39
2019-04-07T03:10:51.205Z,917.37
2019-04-07T03:11:50.990Z,917.35
2019-04-07T03:12:51.212Z,917.35
2019-04-07T03:13:50.491Z,917.33
2019-04-07T03:14:50.700Z,917.34
2019-04-07T03:15:50.533Z,917.35
2019-04-07T03:16:51.472Z,917.36
2019-04-07T03:17:50.449Z,917.35
2019-04-07T03:18:50.761Z,917.40
2019-04-07T03:19:50.473Z,917.45
2019-04-07T03:20:50.426Z,917.42
2019-04-07T03:21:50.403Z,917.50
2019-04-07T03:22:50.767Z,917.51
2019-04-07T03:23:51.382Z,917.51
2019-04-07T03:24:50.479Z,917.56
2019-04-07T03:25:50.364Z,917.60
2019-04-07T03:26:51.424Z,917.64
2019-04-07T03:27:51.410Z,917.70
2019-04-07T03:28:50.348Z,917.68
2019-04-07T03:29:50.324Z,917.65
2019-04-07T03:30:51.904Z,917.68
2019-04-07T03:31:51.395Z,917.73
2019-04-07T03:32:52.947Z,917.75
2019-04-07T03:33:51.933Z,917.75
2019-04-07T03:34:51.989Z,917.79
2019-04-07T03:35:53.115Z,917.77
2019-04-07T03:37:17.277Z,917.77
2019-04-07T03:37:51.579Z,917.79
2019-04-07T03:38:50.385Z,917.74
2019-04-07T03:39:50.216Z,917.76
2019-04-07T03:40:50.308Z,917.73
2019-04-07T03:41:51.995Z,917.74
2019-04-07T03:42:51.006Z,917.76
2019-04-07T03:43:50.893Z,917.80
2019-04-07T03:44:50.916Z,917.80
2019-04-07T03:45:50.205Z,917.76
2019-04-07T03:46:50.141Z,917.76
2019-04-07T03:47:50.467Z,917.76
2019-04-07T03:48:50.807Z,917.74
2019-04-07T03:49:50.863Z,917.74
2019-04-07T03:50:50.831Z,917.71
2019-04-07T03:51:50.087Z,917.71
2019-04-07T03:52:51.047Z,917.72
2019-04-07T03:53:50.549Z,917.71
2019-04-07T03:54:50.859Z,917.73
2019-04-07T03:55:50.042Z,917.77
2019-04-07T03:56:50.077Z,917.76
2019-04-07T03:57:50.675Z,917.78
2019-04-07T03:58:50.737Z,917.78
2019-04-07T03:59:50.031Z,917.81
2019-04-07T04:00:50.304Z,917.81
2019-04-07T04:01:49.987Z,917.83
2019-04-07T04:02:50.573Z,917.80
2019-04-07T04:03:49.977Z,917.81
2019-04-07T04:04:50.140Z,917.79
2019-04-07T04:05:52.172Z,917.84
2019-04-07T04:06:49.927Z,917.84
2019-04-07T04:07:49.915Z,917.83
2019-04-07T04:08:50.958Z,917.85
2019-04-07T04:09:49.891Z,917.85
2019-04-07T04:10:50.183Z,917.88
2019-04-07T04:11:49.873Z,917.92
2019-04-07T04:12:50.256Z,917.89
2019-04-07T04:13:50.923Z,917.88
2019-04-07T04:14:50.812Z,917.91
2019-04-07T04:15:50.110Z,917.90
2019-04-07T04:16:50.746Z,917.90
2019-04-07T04:17:49.808Z,917.97
2019-04-07T04:18:50.361Z,918.00
2019-04-07T04:19:49.788Z,917.98
2019-04-07T04:20:49.875Z,918.02
2019-04-07T04:21:49.767Z,917.99
2019-04-07T04:22:50.640Z,917.97
2019-04-07T04:23:49.747Z,917.95
2019-04-07T04:24:49.974Z,917.97
2019-04-07T04:25:49.729Z,917.95
2019-04-07T04:26:50.120Z,917.95
2019-04-07T04:27:50.656Z,917.90
2019-04-07T04:28:49.697Z,917.89
2019-04-07T04:29:51.942Z,917.90
2019-04-07T04:30:50.680Z,917.90
2019-04-07T04:31:49.665Z,917.93
2019-04-07T04:32:49.721Z,917.92
2019-04-07T04:33:49.642Z,917.95
2019-04-07T04:34:49.733Z,917.95
2019-04-07T04:35:49.646Z,917.99
2019-04-07T04:36:50.268Z,917.97
2019-04-07T04:37:52.358Z,917.91
2019-04-07T04:38:50.265Z,917.93
2019-04-07T04:39:49.587Z,917.92
2019-04-07T04:40:50.462Z,917.95
2019-04-07T04:41:49.566Z,917.94
2019-04-07T04:42:50.358Z,917.91
2019-04-07T04:43:49.547Z,917.86
2019-04-07T04:44:49.846Z,917.88
2019-04-07T04:45:50.452Z,917.89
2019-04-07T04:46:49.513Z,917.90
2019-04-07T04:47:49.514Z,917.93
2019-04-07T04:48:49.593Z,917.97
2019-04-07T04:49:50.297Z,917.91
2019-04-07T04:50:50.410Z,917.96
2019-04-07T04:51:50.070Z,917.92
2019-04-07T04:52:49.448Z,917.90
2019-04-07T04:53:50.287Z,917.94
2019-04-07T04:54:49.692Z,917.98
2019-04-07T04:55:49.529Z,917.94
2019-04-07T04:56:50.103Z,917.93
2019-04-07T04:57:49.843Z,917.87
2019-04-07T04:58:50.399Z,917.84
2019-04-07T04:59:49.375Z,917.84
2019-04-07T05:00:50.547Z,917.88
2019-04-07T05:01:49.944Z,917.88
2019-04-07T05:02:49.591Z,917.88
2019-04-07T05:03:49.450Z,917.89
2019-04-07T05:04:49.707Z,917.90
2019-04-07T05:05:49.390Z,917.93
2019-04-07T05:06:49.301Z,917.92
2019-04-07T05:07:57.683Z,917.90
2019-04-07T05:09:14.590Z,917.85
2019-04-07T05:10:14.195Z,917.83
2019-04-07T05:11:14.668Z,917.84
2019-04-07T05:12:14.165Z,917.80
2019-04-07T05:13:14.155Z,917.78
2019-04-07T05:14:14.243Z,917.81
2019-04-07T05:15:14.737Z,917.76
2019-04-07T05:16:14.129Z,917.79
2019-04-07T05:17:14.128Z,917.72
2019-04-07T05:18:14.310Z,917.77
2019-04-07T05:19:14.292Z,917.69
2019-04-07T05:20:14.236Z,917.77
2019-04-07T05:21:14.073Z,917.76
2019-04-07T05:22:14.510Z,917.66
2019-04-07T05:23:14.131Z,917.71
2019-04-07T05:24:14.653Z,917.74
2019-04-07T05:25:14.056Z,917.74
2019-04-07T05:26:14.710Z,917.76
2019-04-07T05:27:14.017Z,917.77
2019-04-07T05:28:14.006Z,917.76
2019-04-07T05:29:14.625Z,917.77
2019-04-07T05:30:13.984Z,917.77
2019-04-07T05:31:14.498Z,917.76
2019-04-07T05:32:14.562Z,917.73
2019-04-07T05:33:14.139Z,917.71
2019-04-07T05:34:17.229Z,917.73
2019-04-07T05:35:14.281Z,917.80
2019-04-07T05:36:14.740Z,917.76
2019-04-07T05:37:14.089Z,917.77
2019-04-07T05:38:14.573Z,917.73
2019-04-07T05:39:13.894Z,917.77
2019-04-07T05:40:14.035Z,917.76
2019-04-07T05:41:14.143Z,917.76
2019-04-07T05:42:14.654Z,917.76
2019-04-07T05:43:13.856Z,917.74
2019-04-07T05:44:13.946Z,917.76
2019-04-07T05:45:13.834Z,917.80
2019-04-07T05:46:13.913Z,917.83
2019-04-07T05:47:15.254Z,917.78
2019-04-07T05:48:17.323Z,917.80
2019-04-07T05:49:16.226Z,917.77
2019-04-07T05:50:14.307Z,917.76
2019-04-07T05:51:14.347Z,917.72
2019-04-07T05:52:13.956Z,917.72
2019-04-07T05:53:14.791Z,917.68
2019-04-07T05:54:16.912Z,917.66
2019-04-07T05:55:14.219Z,917.69
2019-04-07T05:56:13.720Z,917.66
2019-04-07T05:57:13.709Z,917.67
2019-04-07T05:58:15.687Z,917.69
2019-04-07T05:59:14.648Z,917.65
2019-04-07T06:00:16.343Z,917.67
2019-04-07T06:01:14.052Z,917.68
2019-04-07T06:02:14.366Z,917.67
2019-04-07T06:03:13.647Z,917.70
2019-04-07T06:04:17.506Z,917.69
2019-04-07T06:05:16.285Z,917.60
2019-04-07T06:06:13.665Z,917.65
2019-04-07T06:07:13.824Z,917.58
2019-04-07T06:08:24.637Z,917.60
2019-04-07T06:09:38.398Z,917.56
2019-04-07T06:10:38.761Z,917.57
2019-04-07T06:11:38.820Z,917.53
2019-04-07T06:12:40.339Z,917.57
2019-04-07T06:13:39.075Z,917.57
2019-04-07T06:14:38.885Z,917.61
2019-04-07T06:15:38.337Z,917.59
2019-04-07T06:16:38.766Z,917.55
2019-04-07T06:17:39.100Z,917.53
2019-04-07T06:18:38.302Z,917.52
2019-04-07T06:19:41.090Z,917.49
2019-04-07T06:20:38.280Z,917.49
2019-04-07T06:21:38.659Z,917.51
2019-04-07T06:22:38.804Z,917.50
2019-04-07T06:23:38.656Z,917.48
2019-04-07T06:24:38.430Z,917.46
2019-04-07T06:25:41.717Z,917.45
2019-04-07T06:26:41.621Z,917.43
2019-04-07T06:27:38.430Z,917.46
2019-04-07T06:28:38.199Z,917.44
2019-04-07T06:29:38.903Z,917.45
2019-04-07T06:30:38.175Z,917.43
2019-04-07T06:31:38.171Z,917.39
2019-04-07T06:32:39.489Z,917.40
2019-04-07T06:33:39.349Z,917.40
2019-04-07T06:34:41.095Z,917.37
2019-04-07T06:35:38.148Z,917.40
2019-04-07T06:36:38.680Z,917.41
2019-04-07T06:37:38.660Z,917.40
2019-04-07T06:38:42.553Z,917.40
2019-04-07T06:40:03.558Z,917.37
2019-04-07T06:41:03.136Z,917.36
2019-04-07T06:42:03.527Z,917.38
2019-04-07T06:43:05.280Z,917.32
2019-04-07T06:44:12.739Z,917.36
2019-04-07T06:45:28.316Z,917.32
2019-04-07T06:46:28.670Z,917.31
2019-04-07T06:47:30.816Z,917.32
2019-04-07T06:48:27.728Z,917.29
2019-04-07T06:49:29.448Z,917.29
2019-04-07T06:50:28.069Z,917.25
2019-04-07T06:51:30.926Z,917.25
2019-04-07T06:52:27.983Z,917.23
2019-04-07T06:53:27.995Z,917.26
2019-04-07T06:54:27.664Z,917.22
2019-04-07T06:55:28.918Z,917.17
2019-04-07T06:56:32.177Z,917.17
2019-04-07T06:57:28.299Z,917.12
2019-04-07T06:58:27.621Z,917.11
2019-04-07T06:59:28.298Z,917.10
2019-04-07T07:00:28.037Z,917.13
2019-04-07T07:01:27.640Z,917.11
2019-04-07T07:02:29.525Z,917.10
2019-04-07T07:03:28.244Z,917.09
2019-04-07T07:04:27.676Z,917.10
2019-04-07T07:05:27.900Z,917.03
2019-04-07T07:06:28.462Z,917.01
2019-04-07T07:07:28.139Z,917.03
2019-04-07T07:08:28.328Z,917.01
2019-04-07T07:09:27.854Z,916.96
2019-04-07T07:10:30.347Z,917.00
2019-04-07T07:11:52.296Z,917.04
2019-04-07T07:12:52.332Z,916.98
2019-04-07T07:13:52.269Z,917.00
2019-04-07T07:14:52.839Z,917.03
2019-04-07T07:15:52.895Z,917.01
2019-04-07T07:16:52.244Z,917.04
2019-04-07T07:17:54.896Z,917.06
2019-04-07T07:18:54.713Z,917.00
2019-04-07T07:19:55.661Z,917.01
2019-04-07T07:20:52.687Z,917.01
2019-04-07T07:21:55.742Z,917.06
2019-04-07T07:22:52.666Z,917.05
2019-04-07T07:23:52.549Z,917.01
2019-04-07T07:24:56.453Z,917.00
2019-04-07T07:26:25.358Z,917.00
2019-04-07T07:27:25.821Z,916.97
2019-04-07T07:28:25.095Z,916.97
2019-04-07T07:29:26.609Z,916.96
2019-04-07T07:30:28.318Z,916.98
2019-04-07T07:31:26.343Z,916.97
2019-04-07T07:32:25.057Z,916.91
2019-04-07T07:33:25.044Z,916.92
2019-04-07T07:34:25.037Z,916.89
2019-04-07T07:35:25.606Z,916.90
2019-04-07T07:36:25.016Z,916.93
2019-04-07T07:37:26.155Z,916.90
2019-04-07T07:38:29.713Z,916.88
2019-04-07T07:39:25.142Z,916.89
2019-04-07T07:40:25.421Z,916.93
2019-04-07T07:41:25.351Z,916.89
2019-04-07T07:42:25.650Z,916.89
2019-04-07T07:43:27.924Z,916.89
2019-04-07T07:44:24.928Z,916.90
2019-04-07T07:45:25.043Z,916.90
2019-04-07T07:46:24.909Z,916.86
2019-04-07T07:47:25.387Z,916.80
2019-04-07T07:48:27.955Z,916.83
2019-04-07T07:49:24.877Z,916.81
2019-04-07T07:50:25.409Z,916.81
2019-04-07T07:51:24.905Z,916.83
2019-04-07T07:52:25.493Z,916.82
2019-04-07T07:53:28.101Z,916.78
2019-04-07T07:54:27.729Z,916.76
2019-04-07T07:55:25.290Z,916.76
2019-04-07T07:56:25.559Z,916.77
2019-04-07T07:57:24.972Z,916.75
2019-04-07T07:58:27.938Z,916.73
2019-04-07T07:59:52.746Z,916.71
2019-04-07T08:00:52.684Z,916.68
2019-04-07T08:01:53.407Z,916.66
2019-04-07T08:02:53.569Z,916.63
2019-04-07T08:03:55.689Z,916.63
2019-04-07T08:04:56.541Z,916.65
2019-04-07T08:05:53.327Z,916.67
2019-04-07T08:06:53.361Z,916.65
2019-04-07T08:07:52.606Z,916.67
2019-04-07T08:08:52.652Z,916.65
2019-04-07T08:09:54.386Z,916.67
2019-04-07T08:10:56.162Z,916.66
2019-04-07T08:11:52.789Z,916.67
2019-04-07T08:12:53.165Z,916.65
2019-04-07T08:13:52.575Z,916.67
2019-04-07T08:14:55.561Z,916.65
2019-04-07T08:15:54.630Z,916.63
2019-04-07T08:16:53.112Z,916.63
2019-04-07T08:17:53.133Z,916.62
2019-04-07T08:18:52.500Z,916.61
2019-04-07T08:19:52.483Z,916.61
2019-04-07T08:20:53.295Z,916.56
2019-04-07T08:21:53.004Z,916.63
2019-04-07T08:22:52.451Z,916.60
2019-04-07T08:23:52.537Z,916.57
2019-04-07T08:24:52.426Z,916.56
2019-04-07T08:25:54.470Z,916.56
2019-04-07T08:26:56.282Z,916.59
2019-04-07T08:27:53.094Z,916.59
2019-04-07T08:28:52.597Z,916.57
2019-04-07T08:29:52.672Z,916.58
2019-04-07T08:30:52.368Z,916.57
2019-04-07T08:31:55.458Z,916.56
2019-04-07T08:32:52.341Z,916.57
2019-04-07T08:33:52.778Z,916.62
2019-04-07T08:34:52.325Z,916.58
2019-04-07T08:35:54.883Z,916.59
2019-04-07T08:36:53.063Z,916.59
2019-04-07T08:37:52.286Z,916.58
2019-04-07T08:38:55.079Z,916.58
2019-04-07T08:39:52.593Z,916.57
2019-04-07T08:40:54.282Z,916.62
2019-04-07T08:41:52.898Z,916.55
2019-04-07T08:42:52.236Z,916.58
2019-04-07T08:43:55.441Z,916.59
2019-04-07T08:44:52.296Z,916.61
2019-04-07T08:46:25.183Z,916.56
2019-04-07T08:47:25.809Z,916.61
2019-04-07T08:48:25.616Z,916.57
2019-04-07T08:49:25.622Z,916.61
2019-04-07T08:50:27.699Z,916.64
2019-04-07T08:51:29.342Z,916.65
2019-04-07T08:52:25.114Z,916.63
2019-04-07T08:53:25.151Z,916.61
2019-04-07T08:54:25.091Z,916.62
2019-04-07T08:55:25.889Z,916.63
2019-04-07T08:56:26.645Z,916.60
2019-04-07T08:57:27.208Z,916.63
2019-04-07T08:58:28.577Z,916.62
2019-04-07T08:59:25.039Z,916.57
2019-04-07T09:00:25.023Z,916.54
2019-04-07T09:01:28.446Z,916.59
2019-04-07T09:02:26.890Z,916.56
2019-04-07T09:03:24.997Z,916.59
2019-04-07T09:04:25.275Z,916.59
2019-04-07T09:05:29.023Z,916.60
2019-04-07T09:06:27.297Z,916.56
2019-04-07T09:07:24.959Z,916.59
2019-04-07T09:08:24.945Z,916.54
2019-04-07T09:09:58.717Z,916.59
2019-04-07T09:10:58.228Z,916.58
2019-04-07T09:11:57.880Z,916.61
2019-04-07T09:13:00.646Z,916.55
2019-04-07T09:13:58.182Z,916.58
2019-04-07T09:14:58.317Z,916.58
2019-04-07T09:15:57.990Z,916.57
2019-04-07T09:16:58.236Z,916.52
2019-04-07T09:17:57.819Z,916.55
2019-04-07T09:19:03.792Z,916.48
2019-04-07T09:19:59.795Z,916.49
2019-04-07T09:20:57.785Z,916.46
2019-04-07T09:21:57.873Z,916.52
2019-04-07T09:22:58.239Z,916.48
2019-04-07T09:23:57.799Z,916.47
2019-04-07T09:24:57.902Z,916.46
2019-04-07T09:25:58.367Z,916.44
2019-04-07T09:26:57.853Z,916.46
2019-04-07T09:27:58.358Z,916.46
2019-04-07T09:28:57.697Z,916.46
2019-04-07T09:29:58.185Z,916.44
2019-04-07T09:31:00.293Z,916.41
2019-04-07T09:31:57.668Z,916.41
2019-04-07T09:32:59.597Z,916.38
2019-04-07T09:33:57.643Z,916.32
2019-04-07T09:34:57.637Z,916.35
2019-04-07T09:35:59.252Z,916.35
2019-04-07T09:36:57.617Z,916.30
2019-04-07T09:38:00.458Z,916.30
2019-04-07T09:39:01.489Z,916.28
2019-04-07T09:40:01.166Z,916.28
2019-04-07T09:40:58.435Z,916.35
2019-04-07T09:41:57.561Z,916.37
2019-04-07T09:43:00.232Z,916.35
2019-04-07T09:44:01.151Z,916.34
2019-04-07T09:44:57.542Z,916.35
2019-04-07T09:45:58.329Z,916.40
2019-04-07T09:46:57.577Z,916.37
2019-04-07T09:47:57.626Z,916.34
2019-04-07T09:48:57.685Z,916.36
2019-04-07T09:49:58.405Z,916.33
2019-04-07T09:51:02.344Z,916.35
2019-04-07T09:52:22.274Z,916.34
2019-04-07T09:53:22.965Z,916.35
2019-04-07T09:54:23.334Z,916.36
2019-04-07T09:55:24.356Z,916.38
2019-04-07T09:56:22.791Z,916.41
2019-04-07T09:57:22.223Z,916.41
2019-04-07T09:58:22.204Z,916.45
2019-04-07T09:59:22.885Z,916.45
2019-04-07T10:00:23.954Z,916.42
2019-04-07T10:01:22.286Z,916.48
2019-04-07T10:02:22.177Z,916.48
2019-04-07T10:03:22.150Z,916.52
2019-04-07T10:04:22.142Z,916.56
2019-04-07T10:05:22.134Z,916.52
2019-04-07T10:06:22.130Z,916.55
2019-04-07T10:07:22.938Z,916.57
2019-04-07T10:08:22.101Z,916.61
2019-04-07T10:09:22.957Z,916.59
2019-04-07T10:10:22.666Z,916.65
2019-04-07T10:11:22.115Z,916.66
2019-04-07T10:12:22.062Z,916.73
2019-04-07T10:13:22.785Z,916.72
2019-04-07T10:14:22.039Z,916.73
2019-04-07T10:15:22.418Z,916.70
2019-04-07T10:16:22.228Z,916.70
2019-04-07T10:17:22.239Z,916.71
2019-04-07T10:18:22.877Z,916.69
2019-04-07T10:19:22.089Z,916.69
2019-04-07T10:20:23.195Z,916.68
2019-04-07T10:21:24.223Z,916.71
2019-04-07T10:22:21.960Z,916.67
2019-04-07T10:23:22.012Z,916.68
2019-04-07T10:24:21.933Z,916.69
2019-04-07T10:25:24.815Z,916.68
2019-04-07T10:26:21.916Z,916.69
2019-04-07T10:27:22.400Z,916.71
2019-04-07T10:28:22.377Z,916.70
2019-04-07T10:29:21.974Z,916.68
2019-04-07T10:30:22.560Z,916.70
2019-04-07T10:31:22.454Z,916.69
2019-04-07T10:32:24.722Z,916.66
2019-04-07T10:33:22.528Z,916.65
2019-04-07T10:34:22.524Z,916.65
2019-04-07T10:35:22.436Z,916.63
2019-04-07T10:36:22.802Z,916.66
2019-04-07T10:37:21.962Z,916.62
2019-04-07T10:38:21.804Z,916.68
2019-04-07T10:39:21.784Z,916.66
2019-04-07T10:40:22.515Z,916.70
2019-04-07T10:41:21.810Z,916.75
2019-04-07T10:42:21.928Z,916.73
2019-04-07T10:43:21.749Z,916.70
2019-04-07T10:44:21.728Z,916.63
2019-04-07T10:45:21.798Z,916.56
2019-04-07T10:46:22.588Z,916.55
2019-04-07T10:47:21.853Z,916.52
2019-04-07T10:48:24.347Z,916.44
2019-04-07T10:49:21.681Z,916.41
2019-04-07T10:50:22.183Z,916.35
2019-04-07T10:51:21.686Z,916.36
2019-04-07T10:52:21.653Z,916.36
2019-04-07T10:53:49.670Z,916.38
2019-04-07T10:54:49.549Z,916.37
2019-04-07T10:55:49.701Z,916.40
2019-04-07T10:56:49.813Z,916.38
2019-04-07T10:58:23.045Z,916.35
2019-04-07T10:59:22.532Z,916.38
2019-04-07T11:00:22.487Z,916.33
2019-04-07T11:01:22.459Z,916.31
2019-04-07T11:02:56.950Z,916.33
2019-04-07T11:03:56.410Z,916.28
2019-04-07T11:04:56.225Z,916.29
2019-04-07T11:05:55.404Z,916.27
2019-04-07T11:07:29.249Z,916.27
2019-04-07T11:08:28.784Z,916.25
2019-04-07T11:09:28.417Z,916.24
2019-04-07T11:10:34.290Z,916.26
2019-04-07T11:12:01.887Z,916.25
2019-04-07T11:13:01.795Z,916.26
2019-04-07T11:14:01.268Z,916.24
2019-04-07T11:15:01.257Z,916.20
2019-04-07T11:16:34.314Z,916.24
2019-04-07T11:17:34.207Z,916.18
2019-04-07T11:18:34.718Z,916.16
2019-04-07T11:19:34.412Z,916.13
2019-04-07T11:21:07.147Z,916.13
2019-04-07T11:22:07.835Z,916.11
2019-04-07T11:23:07.369Z,916.08
2019-04-07T11:24:07.128Z,916.11
2019-04-07T11:25:40.085Z,916.08
2019-04-07T11:26:40.378Z,916.10
2019-04-07T11:27:40.869Z,916.09
2019-04-07T11:28:40.099Z,916.05
2019-04-07T11:30:08.151Z,916.07
2019-04-07T11:31:08.109Z,916.02
2019-04-07T11:32:08.665Z,915.99
2019-04-07T11:33:07.979Z,916.00
2019-04-07T11:34:41.391Z,915.96
2019-04-07T11:35:41.393Z,915.97
2019-04-07T11:36:40.872Z,915.94
2019-04-07T11:37:40.858Z,915.91
2019-04-07T11:39:09.073Z,915.87
2019-04-07T11:40:08.751Z,915.88
2019-04-07T11:41:08.743Z,915.84
2019-04-07T11:42:08.867Z,915.89
2019-04-07T11:43:36.980Z,915.84
2019-04-07T11:44:36.688Z,915.79
2019-04-07T11:45:36.625Z,915.86
2019-04-07T11:46:36.618Z,915.77
2019-04-07T11:48:10.062Z,915.78
2019-04-07T11:49:11.544Z,915.70
2019-04-07T11:50:10.483Z,915.71
2019-04-07T11:51:09.661Z,915.72
2019-04-07T11:52:12.549Z,915.71
2019-04-07T11:53:09.526Z,915.70
2019-04-07T11:54:09.789Z,915.71
2019-04-07T11:55:10.250Z,915.68
2019-04-07T11:56:11.287Z,915.61
2019-04-07T11:57:09.834Z,915.65
2019-04-07T11:58:14.812Z,915.59
2019-04-07T11:59:34.930Z,915.59
2019-04-07T12:00:35.764Z,915.63
2019-04-07T12:01:34.935Z,915.59
2019-04-07T12:02:34.246Z,915.61
2019-04-07T12:03:34.346Z,915.57
2019-04-07T12:04:34.549Z,915.67
2019-04-07T12:05:34.213Z,915.61
2019-04-07T12:06:34.277Z,915.67
2019-04-07T12:07:34.513Z,915.62
2019-04-07T12:08:36.319Z,915.69
2019-04-07T12:09:34.836Z,915.64
2019-04-07T12:10:34.407Z,915.57
2019-04-07T12:11:34.372Z,915.64
2019-04-07T12:12:34.346Z,915.64
2019-04-07T12:13:34.888Z,915.64
2019-04-07T12:14:34.113Z,915.57
2019-04-07T12:15:34.730Z,915.58
2019-04-07T12:16:35.017Z,915.63
2019-04-07T12:17:34.766Z,915.63
2019-04-07T12:18:34.190Z,915.63
2019-04-07T12:19:34.119Z,915.62
2019-04-07T12:20:35.307Z,915.63
2019-04-07T12:21:36.966Z,915.62
2019-04-07T12:22:34.137Z,915.62
2019-04-07T12:23:37.047Z,915.66
2019-04-07T12:24:34.753Z,915.59
2019-04-07T12:25:34.665Z,915.59
2019-04-07T12:26:37.304Z,915.65
2019-04-07T12:28:03.903Z,915.64
2019-04-07T12:29:04.021Z,915.67
2019-04-07T12:30:04.360Z,915.67
2019-04-07T12:31:04.040Z,915.73
2019-04-07T12:32:32.507Z,915.69
2019-04-07T12:33:31.774Z,915.67
2019-04-07T12:34:32.194Z,915.72
2019-04-07T12:35:32.975Z,915.72
2019-04-07T12:36:32.161Z,915.75
2019-04-07T12:37:31.840Z,915.74
2019-04-07T12:38:31.887Z,915.74
2019-04-07T12:39:34.150Z,915.78
2019-04-07T12:40:32.282Z,915.77
2019-04-07T12:41:32.231Z,915.81
2019-04-07T12:42:31.773Z,915.81
2019-04-07T12:43:31.673Z,915.81
2019-04-07T12:44:31.646Z,915.80
2019-04-07T12:45:35.820Z,915.85
2019-04-07T12:46:31.623Z,915.87
2019-04-07T12:47:32.030Z,915.93
2019-04-07T12:48:32.090Z,915.94
2019-04-07T12:50:04.083Z,915.94
2019-04-07T12:51:03.454Z,915.93
2019-04-07T12:52:03.319Z,915.96
2019-04-07T12:53:04.994Z,915.96
2019-04-07T12:54:07.377Z,915.95
2019-04-07T12:55:03.284Z,915.94
2019-04-07T12:56:03.275Z,915.96
2019-04-07T12:57:05.970Z,916.00
2019-04-07T12:58:04.774Z,915.97
2019-04-07T12:59:03.397Z,916.00
2019-04-07T13:00:03.233Z,916.01
2019-04-07T13:01:09.794Z,915.98
2019-04-07T13:02:28.545Z,916.02
2019-04-07T13:03:28.828Z,916.02
2019-04-07T13:04:28.425Z,916.08
2019-04-07T13:05:28.606Z,916.08
2019-04-07T13:06:28.703Z,916.07
2019-04-07T13:07:28.482Z,916.09
2019-04-07T13:08:28.610Z,916.10
2019-04-07T13:09:31.934Z,916.09
2019-04-07T13:10:28.129Z,916.11
2019-04-07T13:11:33.775Z,916.08
2019-04-07T13:12:57.148Z,916.10
2019-04-07T13:13:54.268Z,916.09
2019-04-07T13:14:54.664Z,916.07
2019-04-07T13:15:54.349Z,916.07
2019-04-07T13:16:56.439Z,916.05
2019-04-07T13:17:56.338Z,916.12